createdAt,value
2017-07-31T00:02:07.712Z,34.90
2017-07-31T00:04:35.703Z,34.80
2017-07-31T00:07:03.692Z,34.90
2017-07-31T00:09:31.832Z,34.90
2017-07-31T00:11:59.793Z,34.80
2017-07-31T00:14:27.808Z,34.80
2017-07-31T00:16:55.956Z,34.80
2017-07-31T00:19:24.100Z,34.80
2017-07-31T00:21:52.098Z,34.80
2017-07-31T00:24:20.226Z,34.80
2017-07-31T00:26:48.292Z,34.80
2017-07-31T00:29:16.346Z,34.70
2017-07-31T00:31:44.470Z,34.60
2017-07-31T00:34:12.490Z,34.70
2017-07-31T00:36:40.487Z,34.60
2017-07-31T00:39:08.642Z,34.70
2017-07-31T00:41:36.658Z,34.70
2017-07-31T00:44:04.708Z,34.60
2017-07-31T00:46:32.872Z,34.60
2017-07-31T00:49:00.870Z,34.60
2017-07-31T00:51:28.953Z,34.60
2017-07-31T00:53:57.090Z,34.60
2017-07-31T00:56:25.129Z,34.60
2017-07-31T00:58:53.184Z,34.60
2017-07-31T01:01:21.255Z,34.60
2017-07-31T01:03:49.238Z,34.60
2017-07-31T01:06:17.250Z,34.50
2017-07-31T01:08:45.363Z,34.50
2017-07-31T01:11:14.220Z,34.40
2017-07-31T01:13:42.227Z,34.40
2017-07-31T01:16:10.330Z,34.40
2017-07-31T01:18:38.312Z,34.40
2017-07-31T01:21:06.442Z,34.50
2017-07-31T01:23:34.601Z,34.50
2017-07-31T01:26:02.604Z,34.50
2017-07-31T01:28:30.683Z,34.50
2017-07-31T01:30:58.864Z,34.50
2017-07-31T01:33:26.882Z,34.50
2017-07-31T01:35:54.908Z,34.50
2017-07-31T01:38:23.044Z,34.40
2017-07-31T01:40:51.125Z,34.30
2017-07-31T01:43:19.195Z,34.40
2017-07-31T01:45:47.306Z,34.50
2017-07-31T01:48:15.408Z,34.50
2017-07-31T01:50:43.471Z,34.50
2017-07-31T01:53:11.690Z,34.50
2017-07-31T01:55:39.877Z,34.40
2017-07-31T01:58:07.991Z,34.40
2017-07-31T02:00:36.401Z,34.40
2017-07-31T02:03:04.455Z,34.40
2017-07-31T02:05:32.454Z,34.40
2017-07-31T02:08:00.745Z,34.40
2017-07-31T02:10:28.802Z,34.40
2017-07-31T02:12:56.833Z,34.40
2017-07-31T02:15:24.940Z,34.40
2017-07-31T02:17:52.933Z,34.50
2017-07-31T02:20:20.938Z,34.50
2017-07-31T02:22:49.206Z,34.50
2017-07-31T02:25:17.177Z,34.40
2017-07-31T02:27:45.210Z,34.50
2017-07-31T02:30:13.333Z,34.60
2017-07-31T02:32:41.352Z,34.70
2017-07-31T02:35:09.362Z,34.70
2017-07-31T02:37:37.532Z,34.60
2017-07-31T02:40:05.519Z,34.60
2017-07-31T02:42:33.596Z,34.70
2017-07-31T02:45:01.756Z,34.80
2017-07-31T02:47:29.763Z,34.90
2017-07-31T02:49:57.809Z,35.00
2017-07-31T02:52:25.995Z,35.00
2017-07-31T02:54:53.989Z,35.10
2017-07-31T02:57:22.028Z,35.20
2017-07-31T02:59:50.168Z,35.30
2017-07-31T03:02:18.201Z,35.30
2017-07-31T03:04:46.211Z,35.30
2017-07-31T03:07:14.372Z,35.30
2017-07-31T03:09:42.370Z,35.30
2017-07-31T03:12:10.412Z,35.50
2017-07-31T03:14:38.580Z,35.40
2017-07-31T03:17:06.602Z,35.60
2017-07-31T03:19:34.599Z,35.60
2017-07-31T03:22:02.761Z,35.80
2017-07-31T03:24:30.946Z,35.80
2017-07-31T03:26:58.936Z,35.90
2017-07-31T03:29:27.100Z,36.10
2017-07-31T03:31:55.182Z,36.10
2017-07-31T03:34:23.228Z,36.10
2017-07-31T03:36:51.418Z,36.30
2017-07-31T03:39:19.406Z,36.30
2017-07-31T03:41:47.490Z,36.50
2017-07-31T03:44:15.615Z,36.70
2017-07-31T03:46:43.632Z,36.80
2017-07-31T03:49:11.633Z,36.80
2017-07-31T03:51:40.692Z,36.90
2017-07-31T03:54:08.746Z,37.00
2017-07-31T03:56:36.792Z,37.10
2017-07-31T03:59:04.939Z,37.20
2017-07-31T04:01:32.926Z,37.30
2017-07-31T04:04:00.963Z,37.50
2017-07-31T04:06:29.073Z,37.70
2017-07-31T04:08:57.184Z,37.70
2017-07-31T04:11:25.202Z,37.90
2017-07-31T04:13:53.318Z,38.10
2017-07-31T04:16:21.333Z,38.40
2017-07-31T04:18:49.418Z,38.60
2017-07-31T04:21:17.569Z,38.80
2017-07-31T04:23:45.586Z,39.10
2017-07-31T04:26:13.778Z,39.00
2017-07-31T04:28:41.904Z,39.10
2017-07-31T04:31:09.937Z,39.40
2017-07-31T04:33:37.944Z,39.60
2017-07-31T04:36:06.173Z,39.80
2017-07-31T04:38:34.214Z,40.30
2017-07-31T04:41:02.216Z,40.60
2017-07-31T04:43:30.367Z,41.00
2017-07-31T04:45:58.403Z,41.60
2017-07-31T04:48:26.404Z,42.70
2017-07-31T04:50:54.492Z,43.90
2017-07-31T04:53:22.500Z,43.70
2017-07-31T04:55:50.556Z,45.10
2017-07-31T04:58:18.730Z,46.30
2017-07-31T05:00:46.691Z,46.60
2017-07-31T05:03:14.704Z,46.30
2017-07-31T05:05:42.889Z,45.90
2017-07-31T05:08:10.901Z,45.20
2017-07-31T05:10:38.944Z,44.60
2017-07-31T05:13:07.098Z,44.50
2017-07-31T05:15:35.237Z,45.30
2017-07-31T05:18:03.253Z,46.20
2017-07-31T05:20:31.357Z,46.80
2017-07-31T05:22:59.462Z,47.40
2017-07-31T05:25:27.503Z,47.90
2017-07-31T05:27:55.844Z,48.20
2017-07-31T05:30:23.884Z,48.60
2017-07-31T05:32:51.905Z,48.10
2017-07-31T05:35:20.025Z,47.60
2017-07-31T05:37:48.083Z,46.60
2017-07-31T05:40:16.105Z,46.30
2017-07-31T05:42:44.247Z,46.00
2017-07-31T05:45:12.272Z,45.90
2017-07-31T05:47:40.287Z,45.70
2017-07-31T05:50:08.456Z,45.70
2017-07-31T05:52:36.485Z,46.00
2017-07-31T05:55:04.504Z,46.30
2017-07-31T05:57:32.622Z,46.80
2017-07-31T06:00:00.635Z,46.50
2017-07-31T06:02:28.725Z,48.10
2017-07-31T06:04:56.860Z,48.30
2017-07-31T06:07:24.840Z,46.90
2017-07-31T06:09:52.868Z,47.30
2017-07-31T06:12:20.985Z,47.10
2017-07-31T06:14:49.044Z,48.10
2017-07-31T06:17:17.099Z,48.50
2017-07-31T06:19:45.238Z,48.50
2017-07-31T06:22:13.319Z,48.10
2017-07-31T06:24:41.353Z,47.20
2017-07-31T06:27:09.539Z,46.10
2017-07-31T06:29:37.721Z,45.30
2017-07-31T06:32:05.726Z,45.00
2017-07-31T06:34:33.876Z,44.50
2017-07-31T06:37:02.794Z,44.60
2017-07-31T06:39:30.794Z,44.60
2017-07-31T06:41:58.992Z,44.70
2017-07-31T06:44:27.054Z,44.80
2017-07-31T06:46:55.077Z,44.70
2017-07-31T06:49:23.277Z,45.30
2017-07-31T06:51:51.368Z,46.40
2017-07-31T06:54:19.405Z,47.80
2017-07-31T06:56:47.576Z,47.60
2017-07-31T06:59:15.602Z,48.10
2017-07-31T07:01:43.640Z,47.80
2017-07-31T07:04:11.978Z,47.50
2017-07-31T07:06:40.186Z,47.80
2017-07-31T07:09:08.217Z,48.10
2017-07-31T07:11:36.365Z,48.00
2017-07-31T07:14:04.524Z,47.10
2017-07-31T07:16:32.594Z,46.60
2017-07-31T07:19:00.756Z,47.00
2017-07-31T07:21:28.984Z,46.20
2017-07-31T07:23:57.029Z,46.10
2017-07-31T07:26:25.228Z,46.10
2017-07-31T07:28:53.265Z,46.00
2017-07-31T07:31:21.457Z,45.30
2017-07-31T07:33:49.679Z,45.20
2017-07-31T07:36:17.742Z,45.20
2017-07-31T07:38:45.801Z,44.90
2017-07-31T07:41:13.973Z,44.40
2017-07-31T07:43:42.009Z,44.50
2017-07-31T07:46:10.061Z,44.40
2017-07-31T07:48:38.263Z,44.30
2017-07-31T07:51:06.429Z,44.30
2017-07-31T07:53:34.591Z,44.10
2017-07-31T07:56:02.782Z,44.00
2017-07-31T07:58:30.846Z,43.80
2017-07-31T08:00:58.910Z,43.70
2017-07-31T08:03:27.100Z,43.50
2017-07-31T08:05:55.178Z,43.50
2017-07-31T08:08:23.298Z,43.50
2017-07-31T08:10:51.485Z,43.40
2017-07-31T08:13:19.534Z,43.50
2017-07-31T08:15:47.567Z,43.30
2017-07-31T08:18:15.784Z,43.20
2017-07-31T08:20:43.855Z,43.20
2017-07-31T08:23:11.919Z,43.30
2017-07-31T08:25:40.077Z,43.20
2017-07-31T08:28:08.129Z,43.20
2017-07-31T08:30:36.198Z,43.20
2017-07-31T08:33:04.494Z,43.30
2017-07-31T08:35:32.590Z,43.20
2017-07-31T08:38:00.598Z,43.20
2017-07-31T08:40:28.778Z,43.10
2017-07-31T08:42:56.876Z,43.10
2017-07-31T08:45:24.929Z,43.20
2017-07-31T08:47:53.051Z,43.10
2017-07-31T08:50:21.113Z,43.00
2017-07-31T08:52:49.143Z,43.00
2017-07-31T08:55:17.312Z,43.00
2017-07-31T08:57:45.401Z,43.00
2017-07-31T09:00:13.446Z,42.70
2017-07-31T09:02:41.666Z,42.80
2017-07-31T09:05:09.749Z,42.80
2017-07-31T09:07:37.810Z,42.90
2017-07-31T09:10:06.044Z,42.80
2017-07-31T09:12:34.078Z,42.70
2017-07-31T09:15:02.168Z,42.80
2017-07-31T09:17:30.341Z,42.80
2017-07-31T09:19:58.362Z,42.80
2017-07-31T09:22:26.434Z,42.90
2017-07-31T09:24:54.815Z,42.80
2017-07-31T09:27:22.872Z,42.70
2017-07-31T09:29:50.976Z,42.60
2017-07-31T09:32:19.146Z,42.80
2017-07-31T09:34:47.314Z,42.70
2017-07-31T09:37:15.389Z,42.70
2017-07-31T09:39:43.521Z,42.50
2017-07-31T09:42:11.532Z,42.50
2017-07-31T09:44:39.561Z,42.60
2017-07-31T09:47:07.713Z,42.60
2017-07-31T09:49:35.773Z,42.50
2017-07-31T09:52:03.770Z,42.30
2017-07-31T09:54:32.114Z,42.30
2017-07-31T09:57:00.124Z,42.40
2017-07-31T09:59:28.168Z,42.40
2017-07-31T10:01:56.466Z,42.50
2017-07-31T10:04:24.628Z,42.30
2017-07-31T10:06:52.641Z,42.20
2017-07-31T10:09:20.813Z,42.20
2017-07-31T10:11:48.871Z,42.10
2017-07-31T10:14:16.936Z,41.90
2017-07-31T10:16:45.085Z,41.90
2017-07-31T10:19:13.172Z,42.00
2017-07-31T10:21:41.266Z,41.90
2017-07-31T10:24:09.436Z,41.90
2017-07-31T10:26:37.467Z,41.90
2017-07-31T10:29:05.556Z,41.70
2017-07-31T10:31:33.735Z,41.70
2017-07-31T10:34:01.730Z,41.80
2017-07-31T10:36:29.969Z,41.90
2017-07-31T10:38:58.157Z,41.80
2017-07-31T10:41:26.238Z,41.70
2017-07-31T10:43:54.284Z,41.60
2017-07-31T10:46:22.500Z,41.60
2017-07-31T10:48:50.533Z,41.80
2017-07-31T10:51:18.609Z,41.70
2017-07-31T10:53:46.782Z,41.70
2017-07-31T10:56:14.831Z,41.80
2017-07-31T10:58:42.858Z,41.60
2017-07-31T11:01:11.026Z,41.60
2017-07-31T11:03:39.050Z,41.60
2017-07-31T11:06:07.105Z,41.50
2017-07-31T11:08:35.313Z,41.50
2017-07-31T11:11:03.349Z,41.50
2017-07-31T11:13:31.396Z,41.50
2017-07-31T11:15:59.628Z,41.30
2017-07-31T11:18:27.663Z,41.30
2017-07-31T11:20:55.722Z,41.50
2017-07-31T11:23:23.940Z,41.50
2017-07-31T11:25:52.932Z,41.50
2017-07-31T11:28:20.998Z,41.50
2017-07-31T11:30:49.244Z,41.40
2017-07-31T11:33:17.400Z,41.40
2017-07-31T11:35:45.472Z,41.30
2017-07-31T11:38:13.830Z,41.30
2017-07-31T11:40:41.866Z,41.30
2017-07-31T11:43:09.938Z,41.20
2017-07-31T11:45:38.106Z,41.00
2017-07-31T11:48:06.129Z,41.00
2017-07-31T11:50:34.145Z,40.80
2017-07-31T11:53:02.362Z,40.90
2017-07-31T11:55:30.415Z,40.80
2017-07-31T11:57:58.474Z,41.00
2017-07-31T12:00:26.665Z,40.90
2017-07-31T12:02:54.696Z,40.80
2017-07-31T12:05:22.756Z,40.70
2017-07-31T12:07:50.973Z,40.60
2017-07-31T12:10:19.049Z,40.60
2017-07-31T12:12:47.078Z,40.50
2017-07-31T12:15:15.238Z,40.40
2017-07-31T12:17:43.298Z,40.40
2017-07-31T12:20:11.302Z,40.40
2017-07-31T12:22:39.492Z,40.40
2017-07-31T12:25:07.583Z,40.50
2017-07-31T12:27:35.623Z,40.20
2017-07-31T12:30:03.842Z,40.20
2017-07-31T12:32:31.892Z,40.30
2017-07-31T12:34:59.921Z,40.20
2017-07-31T12:37:28.153Z,40.20
2017-07-31T12:39:56.332Z,40.20
2017-07-31T12:42:24.398Z,40.10
2017-07-31T12:44:52.522Z,40.10
2017-07-31T12:47:20.626Z,40.20
2017-07-31T12:49:48.890Z,40.20
2017-07-31T12:52:17.045Z,40.20
2017-07-31T12:54:45.080Z,40.20
2017-07-31T12:57:13.146Z,40.10
2017-07-31T12:59:41.367Z,40.10
2017-07-31T13:02:09.399Z,40.00
2017-07-31T13:04:37.402Z,40.00
2017-07-31T13:07:05.557Z,39.90
2017-07-31T13:09:33.609Z,39.90
2017-07-31T13:12:01.671Z,40.00
2017-07-31T13:14:29.841Z,39.90
2017-07-31T13:16:57.883Z,39.90
2017-07-31T13:19:25.950Z,39.80
2017-07-31T13:21:54.152Z,39.90
2017-07-31T13:24:22.231Z,39.90
2017-07-31T13:26:50.252Z,39.80
2017-07-31T13:29:18.423Z,39.80
2017-07-31T13:31:46.470Z,39.80
2017-07-31T13:34:14.556Z,39.80
2017-07-31T13:36:42.706Z,39.80
2017-07-31T13:39:10.769Z,39.80
2017-07-31T13:41:38.978Z,39.70
2017-07-31T13:44:07.210Z,39.70
2017-07-31T13:46:35.304Z,39.80
2017-07-31T13:49:03.330Z,39.70
2017-07-31T13:51:31.514Z,39.50
2017-07-31T13:53:59.515Z,39.50
2017-07-31T13:56:27.542Z,39.40
2017-07-31T13:58:55.702Z,39.50
2017-07-31T14:01:23.765Z,39.50
2017-07-31T14:03:51.793Z,39.40
2017-07-31T14:06:19.981Z,39.30
2017-07-31T14:08:48.028Z,39.30
2017-07-31T14:11:16.110Z,39.10
2017-07-31T14:13:44.300Z,39.00
2017-07-31T14:16:12.325Z,38.80
2017-07-31T14:18:40.393Z,38.80
2017-07-31T14:21:08.606Z,38.80
2017-07-31T14:23:36.701Z,38.70
2017-07-31T14:26:04.790Z,38.80
2017-07-31T14:28:32.966Z,38.70
2017-07-31T14:31:01.080Z,38.60
2017-07-31T14:33:29.178Z,38.50
2017-07-31T14:35:57.479Z,38.50
2017-07-31T14:38:25.549Z,38.40
2017-07-31T14:40:53.583Z,38.40
2017-07-31T14:43:21.930Z,38.40
2017-07-31T14:45:50.022Z,38.30
2017-07-31T14:48:18.048Z,38.20
2017-07-31T14:50:46.174Z,38.20
2017-07-31T14:53:14.284Z,38.10
2017-07-31T14:55:42.318Z,38.10
2017-07-31T14:58:10.502Z,38.00
2017-07-31T15:00:38.554Z,38.00
2017-07-31T15:03:06.554Z,38.00
2017-07-31T15:05:34.735Z,38.00
2017-07-31T15:08:02.800Z,37.90
2017-07-31T15:10:30.856Z,37.80
2017-07-31T15:12:59.043Z,37.80
2017-07-31T15:15:27.133Z,37.80
2017-07-31T15:17:55.165Z,37.70
2017-07-31T15:20:23.336Z,37.70
2017-07-31T15:22:51.374Z,37.70
2017-07-31T15:25:19.450Z,37.60
2017-07-31T15:27:47.666Z,37.60
2017-07-31T15:30:15.696Z,37.60
2017-07-31T15:32:43.779Z,37.50
2017-07-31T15:35:11.966Z,37.50
2017-07-31T15:37:40.072Z,37.50
2017-07-31T15:40:08.161Z,37.60
2017-07-31T15:42:36.345Z,37.60
2017-07-31T15:45:04.557Z,37.60
2017-07-31T15:47:32.691Z,37.60
2017-07-31T15:50:00.876Z,37.70
2017-07-31T15:52:29.005Z,37.60
2017-07-31T15:54:57.020Z,37.60
2017-07-31T15:57:25.227Z,37.60
2017-07-31T15:59:53.230Z,37.50
2017-07-31T16:02:21.324Z,37.60
2017-07-31T16:04:49.524Z,37.60
2017-07-31T16:07:17.766Z,37.50
2017-07-31T16:09:45.862Z,37.50
2017-07-31T16:12:14.071Z,37.50
2017-07-31T16:14:42.102Z,37.50
2017-07-31T16:17:10.181Z,37.40
2017-07-31T16:19:38.389Z,37.40
2017-07-31T16:22:06.444Z,37.50
2017-07-31T16:24:34.524Z,37.40
2017-07-31T16:27:02.687Z,37.40
2017-07-31T16:29:30.745Z,37.40
2017-07-31T16:31:58.789Z,37.30
2017-07-31T16:34:26.956Z,37.30
2017-07-31T16:36:55.258Z,37.30
2017-07-31T16:39:27.517Z,37.30
2017-07-31T16:42:01.340Z,37.30
2017-07-31T16:44:54.595Z,37.30
2017-07-31T16:47:43.395Z,37.30
2017-07-31T16:50:14.873Z,37.30
2017-07-31T16:52:42.966Z,37.30
2017-07-31T16:55:11.200Z,37.10
2017-07-31T16:57:39.357Z,37.10
2017-07-31T17:00:07.510Z,37.00
2017-07-31T17:02:35.622Z,37.00
2017-07-31T17:05:03.807Z,37.00
2017-07-31T17:07:31.909Z,37.00
2017-07-31T17:09:59.982Z,37.00
2017-07-31T17:12:28.194Z,37.00
2017-07-31T17:14:56.240Z,37.00
2017-07-31T17:17:24.325Z,37.10
2017-07-31T17:19:52.460Z,37.10
2017-07-31T17:22:20.466Z,37.20
2017-07-31T17:24:48.561Z,37.20
2017-07-31T17:27:17.072Z,37.10
2017-07-31T17:29:45.203Z,37.00
2017-07-31T17:32:13.299Z,37.00
2017-07-31T17:34:41.440Z,37.00
2017-07-31T17:37:09.547Z,37.00
2017-07-31T17:39:37.570Z,37.00
2017-07-31T17:42:05.796Z,37.00
2017-07-31T17:44:33.882Z,37.00
2017-07-31T17:47:01.958Z,37.00
2017-07-31T17:49:30.316Z,36.90
2017-07-31T17:51:58.382Z,36.80
2017-07-31T17:54:26.435Z,36.80
2017-07-31T17:56:54.687Z,36.80
2017-07-31T17:59:22.728Z,36.80
2017-07-31T18:01:50.754Z,36.70
2017-07-31T18:04:19.065Z,36.70
2017-07-31T18:06:47.108Z,36.70
2017-07-31T18:09:15.150Z,36.70
2017-07-31T18:11:43.371Z,36.60
2017-07-31T18:14:11.465Z,36.70
2017-07-31T18:16:39.525Z,36.60
2017-07-31T18:19:07.683Z,36.60
2017-07-31T18:21:35.772Z,36.60
2017-07-31T18:24:03.861Z,36.60
2017-07-31T18:26:32.018Z,36.60
2017-07-31T18:29:00.073Z,36.60
2017-07-31T18:31:28.191Z,36.50
2017-07-31T18:33:56.365Z,36.50
2017-07-31T18:36:24.425Z,36.50
2017-07-31T18:38:52.472Z,36.40
2017-07-31T18:41:20.682Z,36.40
2017-07-31T18:43:48.780Z,36.40
2017-07-31T18:46:16.873Z,36.30
2017-07-31T18:48:45.074Z,36.40
2017-07-31T18:51:13.271Z,36.40
2017-07-31T18:53:41.348Z,36.30
2017-07-31T18:56:09.532Z,36.30
2017-07-31T18:58:37.548Z,36.20
2017-07-31T19:01:05.612Z,36.30
2017-07-31T19:03:33.793Z,36.30
2017-07-31T19:06:01.847Z,36.30
2017-07-31T19:08:30.010Z,36.40
2017-07-31T19:10:58.217Z,36.30
2017-07-31T19:13:26.218Z,36.30
2017-07-31T19:15:54.305Z,36.30
2017-07-31T19:18:22.430Z,36.30
2017-07-31T19:20:50.492Z,36.30
2017-07-31T19:23:18.564Z,36.30
2017-07-31T19:25:46.706Z,36.30
2017-07-31T19:28:14.723Z,36.30
2017-07-31T19:30:42.808Z,36.30
2017-07-31T19:33:10.976Z,36.30
2017-07-31T19:35:39.084Z,36.30
2017-07-31T19:38:07.145Z,36.30
2017-07-31T19:40:35.317Z,36.30
2017-07-31T19:43:03.354Z,36.30
2017-07-31T19:45:31.413Z,36.30
2017-07-31T19:47:59.561Z,36.30
2017-07-31T19:50:27.602Z,36.20
2017-07-31T19:52:55.833Z,36.30
2017-07-31T19:55:23.945Z,36.20
2017-07-31T19:57:52.010Z,36.30
2017-07-31T20:00:20.106Z,36.30
2017-07-31T20:02:48.287Z,36.30
2017-07-31T20:05:16.404Z,36.20
2017-07-31T20:07:44.434Z,36.20
2017-07-31T20:10:12.660Z,36.20
2017-07-31T20:12:40.725Z,36.20
2017-07-31T20:15:08.813Z,36.20
2017-07-31T20:17:37.176Z,36.10
2017-07-31T20:20:05.238Z,36.10
2017-07-31T20:22:33.270Z,36.10
2017-07-31T20:25:01.412Z,36.10
2017-07-31T20:27:29.455Z,36.10
2017-07-31T20:29:57.481Z,36.00
2017-07-31T20:32:25.686Z,36.00
2017-07-31T20:34:53.788Z,35.90
2017-07-31T20:37:21.850Z,35.90
2017-07-31T20:39:50.052Z,35.90
2017-07-31T20:42:18.116Z,35.90
2017-07-31T20:44:46.174Z,35.90
2017-07-31T20:47:14.334Z,35.90
2017-07-31T20:49:42.484Z,35.90
2017-07-31T20:52:10.574Z,35.80
2017-07-31T20:54:38.866Z,35.80
2017-07-31T20:57:06.903Z,35.80
2017-07-31T20:59:34.955Z,35.80
2017-07-31T21:02:03.185Z,35.70
2017-07-31T21:04:31.218Z,35.60
2017-07-31T21:06:59.242Z,35.60
2017-07-31T21:09:27.378Z,35.60
2017-07-31T21:11:55.434Z,35.50
2017-07-31T21:14:23.497Z,35.60
2017-07-31T21:16:51.636Z,35.60
2017-07-31T21:19:19.766Z,35.60
2017-07-31T21:21:47.776Z,35.50
2017-07-31T21:24:15.993Z,35.50
2017-07-31T21:26:44.022Z,35.50
2017-07-31T21:29:12.148Z,35.40
2017-07-31T21:31:40.344Z,35.40
2017-07-31T21:34:08.440Z,35.40
2017-07-31T21:36:36.496Z,35.30
2017-07-31T21:39:04.942Z,35.40
2017-07-31T21:41:33.034Z,35.30
2017-07-31T21:44:01.092Z,35.30
2017-07-31T21:46:29.273Z,35.30
2017-07-31T21:48:57.344Z,35.30
2017-07-31T21:51:25.383Z,35.30
2017-07-31T21:53:53.542Z,35.30
2017-07-31T21:56:21.752Z,35.20
2017-07-31T21:58:49.758Z,35.20
2017-07-31T22:01:17.882Z,35.20
2017-07-31T22:03:45.898Z,35.20
2017-07-31T22:06:13.918Z,35.20
2017-07-31T22:08:42.068Z,35.10
2017-07-31T22:11:10.081Z,35.20
2017-07-31T22:13:38.093Z,35.10
2017-07-31T22:16:06.353Z,35.00
2017-07-31T22:18:34.364Z,35.20
2017-07-31T22:21:08.147Z,35.20
2017-07-31T22:23:36.181Z,35.20
2017-07-31T22:26:04.224Z,35.20
2017-07-31T22:28:32.330Z,35.10
2017-07-31T22:31:00.407Z,35.00
2017-07-31T22:33:28.436Z,35.10
2017-07-31T22:35:56.608Z,35.00
2017-07-31T22:38:24.685Z,35.00
2017-07-31T22:40:52.721Z,35.00
2017-07-31T22:43:20.924Z,35.10
2017-07-31T22:45:49.005Z,35.00
2017-07-31T22:48:17.070Z,35.10
2017-07-31T22:50:45.300Z,35.00
2017-07-31T22:53:13.321Z,35.00
2017-07-31T22:55:41.409Z,35.10
2017-07-31T22:58:09.714Z,35.10
2017-07-31T23:00:37.784Z,35.00
2017-07-31T23:03:05.824Z,35.00
2017-07-31T23:05:33.945Z,35.00
2017-07-31T23:08:02.001Z,34.90
2017-07-31T23:10:30.044Z,34.90
2017-07-31T23:12:58.207Z,34.90
2017-07-31T23:15:26.296Z,35.00
2017-07-31T23:17:54.318Z,35.00
2017-07-31T23:20:22.522Z,35.00
2017-07-31T23:22:50.565Z,35.00
2017-07-31T23:25:18.646Z,35.00
2017-07-31T23:27:46.820Z,35.00
2017-07-31T23:30:15.022Z,35.00
2017-07-31T23:32:43.062Z,34.90
2017-07-31T23:35:11.209Z,34.90
2017-07-31T23:37:39.231Z,34.90
2017-07-31T23:40:07.294Z,35.00
2017-07-31T23:42:35.477Z,34.90
2017-07-31T23:45:03.524Z,35.00
2017-07-31T23:47:31.561Z,34.90
2017-07-31T23:49:59.726Z,34.90
2017-07-31T23:52:27.835Z,35.00
2017-07-31T23:54:55.940Z,35.00
2017-07-31T23:57:24.157Z,35.00
2017-07-31T23:59:52.334Z,35.00
